PWSweather.com
Personal Weather Stations
Station Observations

EtonMackayAU

Lat: -21.263, Lon: 148.975

Elevation: 106

Station Type: Davis Vantage Vue

http://aspgweather.com/cumulus/data.php

Latest ConditionsUpdated 3:51:01 PM GMT+10:10 Tuesday, Jun 18, 2019
Currently Today's Max Today's Min Today's Average
Temperature 71.2°F21.8°C 73.6°F23.1°C 44.4°F6.9°C 59.7°F15.4°C
Dew Point 41.4°F5.2°C 50.7°F10.4°C 38.1°F3.4°C 44.2°F6.8°C
Winds 6.2 mph SW10.0 kmh SW 10.6 mph -17.1 kmh - - 3.1 mph 5.0 kmh
Wind Gusts 10.3 mph16.6 kmh 13.0 mph20.9 kmh - -
Humidity 34% 84% 32% 60%
Pressure 29.96 in1014.6 mb 30.09 in1019.0 mb 29.96 in1014.6 mb -
Hour Temp Dew Point Humidity Winds Wind Gusts Pressure Precip Precip Rate Daily Precip Total
03:51 PM 71.2°F21.8°C 41.4°F5.2°C 34% 6.2 mph SW10.0 kmh SW 10.3 mph16.6 kmh 29.96 in1014.6 mb 0.00 in0.0 mm 0.00 in0.0 mm 0.00 in0.0 mm
03:46 PM 71.4°F21.9°C 40.8°F4.9°C 33% 6.7 mph SW10.8 kmh SW 10.3 mph16.6 kmh 29.96 in1014.6 mb 0.00 in0.0 mm 0.00 in0.0 mm 0.00 in0.0 mm
03:41 PM 71.4°F21.9°C 41.5°F5.3°C 34% 7.0 mph S11.3 kmh S 13.0 mph20.9 kmh 29.96 in1014.6 mb 0.00 in0.0 mm 0.00 in0.0 mm 0.00 in0.0 mm
03:36 PM 71.6°F22.0°C 40.1°F4.5°C 32% 6.8 mph S10.9 kmh S 13.0 mph20.9 kmh 29.96 in1014.6 mb 0.00 in0.0 mm 0.00 in0.0 mm 0.00 in0.0 mm
03:31 PM 72.0°F22.2°C 41.2°F5.1°C 33% 5.1 mph SSW8.2 kmh SSW 8.9 mph14.3 kmh 29.96 in1014.6 mb 0.00 in0.0 mm 0.00 in0.0 mm 0.00 in0.0 mm
03:26 PM 72.5°F22.5°C 41.7°F5.4°C 33% 5.7 mph SSW9.2 kmh SSW 10.3 mph16.6 kmh 29.96 in1014.6 mb 0.00 in0.0 mm 0.00 in0.0 mm 0.00 in0.0 mm
03:21 PM 72.3°F22.4°C 40.8°F4.9°C 32% 5.7 mph SW9.2 kmh SW 10.3 mph16.6 kmh 29.96 in1014.6 mb 0.00 in0.0 mm 0.00 in0.0 mm 0.00 in0.0 mm
03:16 PM 72.7°F22.6°C 41.9°F5.5°C 33% 5.3 mph SW8.5 kmh SW 6.3 mph10.1 kmh 29.96 in1014.6 mb 0.00 in0.0 mm 0.00 in0.0 mm 0.00 in0.0 mm
03:11 PM 72.9°F22.7°C 41.2°F5.1°C 32% 7.8 mph WSW12.6 kmh WSW 11.4 mph18.3 kmh 29.96 in1014.6 mb 0.00 in0.0 mm 0.00 in0.0 mm 0.00 in0.0 mm
03:06 PM 72.7°F22.6°C 41.0°F5.0°C 32% 8.5 mph W13.7 kmh W 11.4 mph18.3 kmh 29.96 in1014.6 mb 0.00 in0.0 mm 0.00 in0.0 mm 0.00 in0.0 mm
03:01 PM 72.9°F22.7°C 43.5°F6.4°C 35% 5.7 mph SW9.2 kmh SW 11.4 mph18.3 kmh 29.96 in1014.6 mb 0.00 in0.0 mm 0.00 in0.0 mm 0.00 in0.0 mm
02:56 PM 72.5°F22.5°C 43.9°F6.6°C 36% 5.7 mph SW9.2 kmh SW 8.9 mph14.3 kmh 29.96 in1014.6 mb 0.00 in0.0 mm 0.00 in0.0 mm 0.00 in0.0 mm
02:51 PM 72.1°F22.3°C 42.1°F5.6°C 34% 7.3 mph SW11.7 kmh SW 11.4 mph18.3 kmh 29.96 in1014.6 mb 0.00 in0.0 mm 0.00 in0.0 mm 0.00 in0.0 mm
02:46 PM 72.3°F22.4°C 43.0°F6.1°C 35% 7.0 mph SSW11.3 kmh SSW 11.4 mph18.3 kmh 29.96 in1014.6 mb 0.00 in0.0 mm 0.00 in0.0 mm 0.00 in0.0 mm
02:41 PM 72.3°F22.4°C 42.3°F5.7°C 34% 8.8 mph SSW14.2 kmh SSW 11.4 mph18.3 kmh 29.96 in1014.6 mb 0.00 in0.0 mm 0.00 in0.0 mm 0.00 in0.0 mm
02:36 PM 72.5°F22.5°C 43.9°F6.6°C 36% 9.2 mph WSW14.8 kmh WSW 11.4 mph18.3 kmh 29.97 in1014.9 mb 0.00 in0.0 mm 0.00 in0.0 mm 0.00 in0.0 mm
02:31 PM 72.9°F22.7°C 42.1°F5.6°C 33% 8.8 mph W14.2 kmh W 11.4 mph18.3 kmh 29.96 in1014.6 mb 0.00 in0.0 mm 0.00 in0.0 mm 0.00 in0.0 mm
02:26 PM 72.7°F22.6°C 43.3°F6.3°C 35% 10.3 mph W16.6 kmh W 11.4 mph18.3 kmh 29.97 in1014.9 mb 0.00 in0.0 mm 0.00 in0.0 mm 0.00 in0.0 mm
02:21 PM 72.5°F22.5°C 41.7°F5.4°C 33% 10.6 mph W17.1 kmh W 13.0 mph20.9 kmh 29.97 in1014.9 mb 0.00 in0.0 mm 0.00 in0.0 mm 0.00 in0.0 mm
02:16 PM 73.6°F23.1°C 44.2°F6.8°C 35% 8.4 mph WNW13.5 kmh WNW 13.0 mph20.9 kmh 29.97 in1014.9 mb 0.00 in0.0 mm 0.00 in0.0 mm 0.00 in0.0 mm
02:11 PM 73.4°F23.0°C 43.3°F6.3°C 34% 6.6 mph WSW10.6 kmh WSW 11.4 mph18.3 kmh 29.97 in1014.9 mb 0.00 in0.0 mm 0.00 in0.0 mm 0.00 in0.0 mm
02:06 PM 72.9°F22.7°C 43.5°F6.4°C 35% 7.4 mph WSW11.9 kmh WSW 10.3 mph16.6 kmh 29.98 in1015.2 mb 0.00 in0.0 mm 0.00 in0.0 mm 0.00 in0.0 mm
02:01 PM 72.9°F22.7°C 42.1°F5.6°C 33% 7.9 mph W12.7 kmh W 10.3 mph16.6 kmh 29.98 in1015.2 mb 0.00 in0.0 mm 0.00 in0.0 mm 0.00 in0.0 mm
01:56 PM 73.4°F23.0°C 44.1°F6.7°C 35% 6.6 mph SW10.6 kmh SW 8.9 mph14.3 kmh 29.98 in1015.2 mb 0.00 in0.0 mm 0.00 in0.0 mm 0.00 in0.0 mm
01:51 PM 72.7°F22.6°C 44.8°F7.1°C 37% 5.2 mph S8.4 kmh S 7.8 mph12.6 kmh 29.98 in1015.2 mb 0.00 in0.0 mm 0.00 in0.0 mm 0.00 in0.0 mm
01:46 PM 72.9°F22.7°C 44.2°F6.8°C 36% 4.8 mph SSW7.7 kmh SSW 7.8 mph12.6 kmh 29.98 in1015.2 mb 0.00 in0.0 mm 0.00 in0.0 mm 0.00 in0.0 mm
01:41 PM 72.5°F22.5°C 43.9°F6.6°C 36% 5.0 mph SW8.0 kmh SW 7.8 mph12.6 kmh 29.99 in1015.6 mb 0.00 in0.0 mm 0.00 in0.0 mm 0.00 in0.0 mm
01:36 PM 72.0°F22.2°C 44.2°F6.8°C 37% 7.0 mph S11.3 kmh S 10.3 mph16.6 kmh 29.99 in1015.6 mb 0.00 in0.0 mm 0.00 in0.0 mm 0.00 in0.0 mm
01:31 PM 72.1°F22.3°C 44.4°F6.9°C 37% 6.2 mph S10.0 kmh S 10.3 mph16.6 kmh 29.99 in1015.6 mb 0.00 in0.0 mm 0.00 in0.0 mm 0.00 in0.0 mm
01:26 PM 72.3°F22.4°C 44.6°F7.0°C 37% 3.5 mph SW5.6 kmh SW 7.8 mph12.6 kmh 29.99 in1015.6 mb 0.00 in0.0 mm 0.00 in0.0 mm 0.00 in0.0 mm
01:21 PM 71.6°F22.0°C 48.4°F9.1°C 44% 5.0 mph SSW8.0 kmh SSW 7.8 mph12.6 kmh 29.99 in1015.6 mb 0.00 in0.0 mm 0.00 in0.0 mm 0.00 in0.0 mm
01:16 PM 71.2°F21.8°C 45.0°F7.2°C 39% 5.8 mph SE9.3 kmh SE 7.8 mph12.6 kmh 30.00 in1015.9 mb 0.00 in0.0 mm 0.00 in0.0 mm 0.00 in0.0 mm
01:11 PM 71.1°F21.7°C 45.5°F7.5°C 40% 5.5 mph SE8.9 kmh SE 7.8 mph12.6 kmh 30.00 in1015.9 mb 0.00 in0.0 mm 0.00 in0.0 mm 0.00 in0.0 mm
01:06 PM 70.9°F21.6°C 46.6°F8.1°C 42% 5.1 mph SSE8.2 kmh SSE 6.3 mph10.1 kmh 30.01 in1016.3 mb 0.00 in0.0 mm 0.00 in0.0 mm 0.00 in0.0 mm
01:01 PM 70.9°F21.6°C 45.9°F7.7°C 41% 5.0 mph SE8.0 kmh SE 6.3 mph10.1 kmh 30.01 in1016.3 mb 0.00 in0.0 mm 0.00 in0.0 mm 0.00 in0.0 mm
12:56 PM 70.7°F21.5°C 46.9°F8.3°C 43% 5.1 mph SSE8.2 kmh SSE 6.3 mph10.1 kmh 30.01 in1016.3 mb 0.00 in0.0 mm 0.00 in0.0 mm 0.00 in0.0 mm
12:51 PM 70.7°F21.5°C 45.7°F7.6°C 41% 5.3 mph S8.5 kmh S 7.8 mph12.6 kmh 30.01 in1016.3 mb 0.00 in0.0 mm 0.00 in0.0 mm 0.00 in0.0 mm
12:46 PM 70.9°F21.6°C 45.3°F7.4°C 40% 4.9 mph S7.9 kmh S 7.8 mph12.6 kmh 30.02 in1016.6 mb 0.00 in0.0 mm 0.00 in0.0 mm 0.00 in0.0 mm
12:41 PM 71.1°F21.7°C 46.8°F8.2°C 42% 6.0 mph S9.7 kmh S 10.3 mph16.6 kmh 30.02 in1016.6 mb 0.00 in0.0 mm 0.00 in0.0 mm 0.00 in0.0 mm
12:36 PM 71.2°F21.8°C 45.0°F7.2°C 39% 4.8 mph S7.7 kmh S 10.3 mph16.6 kmh 30.02 in1016.6 mb 0.00 in0.0 mm 0.00 in0.0 mm 0.00 in0.0 mm
12:31 PM 71.4°F21.9°C 47.7°F8.7°C 43% 3.4 mph SE5.5 kmh SE 5.2 mph8.4 kmh 30.02 in1016.6 mb 0.00 in0.0 mm 0.00 in0.0 mm 0.00 in0.0 mm
12:26 PM 70.3°F21.3°C 46.0°F7.8°C 42% 4.4 mph ENE7.1 kmh ENE 5.2 mph8.4 kmh 30.03 in1016.9 mb 0.00 in0.0 mm 0.00 in0.0 mm 0.00 in0.0 mm
12:21 PM 71.2°F21.8°C 46.2°F7.9°C 41% 3.7 mph NNE6.0 kmh NNE 5.2 mph8.4 kmh 30.03 in1016.9 mb 0.00 in0.0 mm 0.00 in0.0 mm 0.00 in0.0 mm
12:16 PM 70.3°F21.3°C 46.0°F7.8°C 42% 4.5 mph NNE7.2 kmh NNE 6.3 mph10.1 kmh 30.03 in1016.9 mb 0.00 in0.0 mm 0.00 in0.0 mm 0.00 in0.0 mm
12:11 PM 70.0°F21.1°C 46.9°F8.3°C 44% 5.5 mph NE8.9 kmh NE 6.3 mph10.1 kmh 30.04 in1017.3 mb 0.00 in0.0 mm 0.00 in0.0 mm 0.00 in0.0 mm
12:06 PM 69.6°F20.9°C 46.6°F8.1°C 44% 4.8 mph E7.7 kmh E 6.3 mph10.1 kmh 30.04 in1017.3 mb 0.00 in0.0 mm 0.00 in0.0 mm 0.00 in0.0 mm
12:01 PM 69.6°F20.9°C 47.8°F8.8°C 46% 4.3 mph SE6.9 kmh SE 5.2 mph8.4 kmh 30.04 in1017.3 mb 0.00 in0.0 mm 0.00 in0.0 mm 0.00 in0.0 mm
11:56 AM 69.1°F20.6°C 47.3°F8.5°C 46% 4.6 mph SSE7.4 kmh SSE 6.3 mph10.1 kmh 30.04 in1017.3 mb 0.00 in0.0 mm 0.00 in0.0 mm 0.00 in0.0 mm
11:51 AM 69.4°F20.8°C 47.1°F8.4°C 45% 4.1 mph SE6.6 kmh SE 6.3 mph10.1 kmh 30.05 in1017.6 mb 0.00 in0.0 mm 0.00 in0.0 mm 0.00 in0.0 mm
11:46 AM 69.1°F20.6°C 49.1°F9.5°C 49% 3.3 mph ESE5.3 kmh ESE 3.8 mph6.1 kmh 30.05 in1017.6 mb 0.00 in0.0 mm 0.00 in0.0 mm 0.00 in0.0 mm
11:41 AM 68.5°F20.3°C 47.5°F8.6°C 47% 4.2 mph ENE6.8 kmh ENE 5.2 mph8.4 kmh 30.05 in1017.6 mb 0.00 in0.0 mm 0.00 in0.0 mm 0.00 in0.0 mm
11:36 AM 68.9°F20.5°C 46.6°F8.1°C 45% 5.0 mph NE8.0 kmh NE 5.2 mph8.4 kmh 30.06 in1017.9 mb 0.00 in0.0 mm 0.00 in0.0 mm 0.00 in0.0 mm
11:31 AM 69.1°F20.6°C 47.3°F8.5°C 46% 3.8 mph NNE6.1 kmh NNE 5.2 mph8.4 kmh 30.06 in1017.9 mb 0.00 in0.0 mm 0.00 in0.0 mm 0.00 in0.0 mm
11:26 AM 68.4°F20.2°C 47.8°F8.8°C 48% 3.3 mph E5.3 kmh E 5.2 mph8.4 kmh 30.06 in1017.9 mb 0.00 in0.0 mm 0.00 in0.0 mm 0.00 in0.0 mm
11:21 AM 66.6°F19.2°C 46.2°F7.9°C 48% 5.0 mph SW8.0 kmh SW 7.8 mph12.6 kmh 30.06 in1017.9 mb 0.00 in0.0 mm 0.00 in0.0 mm 0.00 in0.0 mm
11:16 AM 66.9°F19.4°C 46.6°F8.1°C 48% 5.8 mph NW9.3 kmh NW 8.9 mph14.3 kmh 30.06 in1017.9 mb 0.00 in0.0 mm 0.00 in0.0 mm 0.00 in0.0 mm
11:11 AM 67.3°F19.6°C 45.7°F7.6°C 46% 5.5 mph NNE8.9 kmh NNE 8.9 mph14.3 kmh 30.07 in1018.3 mb 0.00 in0.0 mm 0.00 in0.0 mm 0.00 in0.0 mm
11:06 AM 67.5°F19.7°C 45.9°F7.7°C 46% 4.9 mph NE7.9 kmh NE 7.8 mph12.6 kmh 30.07 in1018.3 mb 0.00 in0.0 mm 0.00 in0.0 mm 0.00 in0.0 mm
11:01 AM 67.1°F19.5°C 46.0°F7.8°C 47% 4.7 mph NE7.6 kmh NE 7.8 mph12.6 kmh 30.07 in1018.3 mb 0.00 in0.0 mm 0.00 in0.0 mm 0.00 in0.0 mm
10:56 AM 66.4°F19.1°C 45.5°F7.5°C 47% 5.0 mph NE8.0 kmh NE 6.3 mph10.1 kmh 30.08 in1018.6 mb 0.00 in0.0 mm 0.00 in0.0 mm 0.00 in0.0 mm
10:51 AM 67.1°F19.5°C 45.5°F7.5°C 46% 5.3 mph NNE8.5 kmh NNE 6.3 mph10.1 kmh 30.08 in1018.6 mb 0.00 in0.0 mm 0.00 in0.0 mm 0.00 in0.0 mm
10:46 AM 67.1°F19.5°C 46.0°F7.8°C 47% 4.8 mph N7.7 kmh N 6.3 mph10.1 kmh 30.08 in1018.6 mb 0.00 in0.0 mm 0.00 in0.0 mm 0.00 in0.0 mm
10:41 AM 66.4°F19.1°C 45.5°F7.5°C 47% 4.4 mph NNW7.1 kmh NNW 6.3 mph10.1 kmh 30.08 in1018.6 mb 0.00 in0.0 mm 0.00 in0.0 mm 0.00 in0.0 mm
10:36 AM 65.3°F18.5°C 45.0°F7.2°C 48% 5.2 mph NW8.4 kmh NW 6.3 mph10.1 kmh 30.08 in1018.6 mb 0.00 in0.0 mm 0.00 in0.0 mm 0.00 in0.0 mm
10:26 AM 65.7°F18.7°C 44.8°F7.1°C 47% 3.9 mph N6.3 kmh N 6.3 mph10.1 kmh 30.08 in1018.6 mb 0.00 in0.0 mm 0.00 in0.0 mm 0.00 in0.0 mm
10:21 AM 65.7°F18.7°C 44.8°F7.1°C 47% 4.2 mph NE6.8 kmh NE 6.3 mph10.1 kmh 30.08 in1018.6 mb 0.00 in0.0 mm 0.00 in0.0 mm 0.00 in0.0 mm
10:16 AM 65.8°F18.8°C 45.0°F7.2°C 47% 3.7 mph NE6.0 kmh NE 6.3 mph10.1 kmh 30.08 in1018.6 mb 0.00 in0.0 mm 0.00 in0.0 mm 0.00 in0.0 mm
10:11 AM 65.1°F18.4°C 45.9°F7.7°C 50% 4.1 mph NNE6.6 kmh NNE 5.2 mph8.4 kmh 30.08 in1018.6 mb 0.00 in0.0 mm 0.00 in0.0 mm 0.00 in0.0 mm
10:06 AM 64.4°F18.0°C 44.2°F6.8°C 48% 4.1 mph NNE6.6 kmh NNE 5.2 mph8.4 kmh 30.09 in1019.0 mb 0.00 in0.0 mm 0.00 in0.0 mm 0.00 in0.0 mm
10:01 AM 64.4°F18.0°C 43.7°F6.5°C 47% 3.1 mph NE5.0 kmh NE 5.2 mph8.4 kmh 30.08 in1018.6 mb 0.00 in0.0 mm 0.00 in0.0 mm 0.00 in0.0 mm
09:56 AM 63.3°F17.4°C 41.5°F5.3°C 45% 2.8 mph E4.5 kmh E 3.8 mph6.1 kmh 30.08 in1018.6 mb 0.00 in0.0 mm 0.00 in0.0 mm 0.00 in0.0 mm
09:51 AM 63.3°F17.4°C 43.7°F6.5°C 49% 2.8 mph SE4.5 kmh SE 3.8 mph6.1 kmh 30.08 in1018.6 mb 0.00 in0.0 mm 0.00 in0.0 mm 0.00 in0.0 mm
09:46 AM 63.1°F17.3°C 45.7°F7.6°C 53% 3.6 mph ESE5.8 kmh ESE 3.8 mph6.1 kmh 30.08 in1018.6 mb 0.00 in0.0 mm 0.00 in0.0 mm 0.00 in0.0 mm
09:41 AM 62.2°F16.8°C 44.2°F6.8°C 52% 3.9 mph E6.3 kmh E 5.2 mph8.4 kmh 30.08 in1018.6 mb 0.00 in0.0 mm 0.00 in0.0 mm 0.00 in0.0 mm
09:36 AM 62.4°F16.9°C 48.7°F9.3°C 61% 3.5 mph E5.6 kmh E 5.2 mph8.4 kmh 30.08 in1018.6 mb 0.00 in0.0 mm 0.00 in0.0 mm 0.00 in0.0 mm
09:31 AM 62.1°F16.7°C 49.3°F9.6°C 63% 3.5 mph E5.6 kmh E 3.8 mph6.1 kmh 30.08 in1018.6 mb 0.00 in0.0 mm 0.00 in0.0 mm 0.00 in0.0 mm
09:26 AM 61.9°F16.6°C 49.5°F9.7°C 64% 3.8 mph E6.1 kmh E 5.2 mph8.4 kmh 30.08 in1018.6 mb 0.00 in0.0 mm 0.00 in0.0 mm 0.00 in0.0 mm
09:21 AM 62.1°F16.7°C 50.0°F10.0°C 65% 3.9 mph E6.3 kmh E 5.2 mph8.4 kmh 30.08 in1018.6 mb 0.00 in0.0 mm 0.00 in0.0 mm 0.00 in0.0 mm
09:16 AM 62.2°F16.8°C 50.7°F10.4°C 66% 3.7 mph ENE6.0 kmh ENE 5.2 mph8.4 kmh 30.08 in1018.6 mb 0.00 in0.0 mm 0.00 in0.0 mm 0.00 in0.0 mm
09:11 AM 62.4°F16.9°C 50.0°F10.0°C 64% 3.1 mph ENE5.0 kmh ENE 3.8 mph6.1 kmh 30.08 in1018.6 mb 0.00 in0.0 mm 0.00 in0.0 mm 0.00 in0.0 mm
09:06 AM 62.1°F16.7°C 49.3°F9.6°C 63% 3.4 mph NE5.5 kmh NE 3.8 mph6.1 kmh 30.08 in1018.6 mb 0.00 in0.0 mm 0.00 in0.0 mm 0.00 in0.0 mm
09:01 AM 62.2°F16.8°C 49.5°F9.7°C 63% 3.5 mph NE5.6 kmh NE 5.2 mph8.4 kmh 30.08 in1018.6 mb 0.00 in0.0 mm 0.00 in0.0 mm 0.00 in0.0 mm
08:56 AM 62.4°F16.9°C 48.7°F9.3°C 61% 2.7 mph NNE4.3 kmh NNE 5.2 mph8.4 kmh 30.08 in1018.6 mb 0.00 in0.0 mm 0.00 in0.0 mm 0.00 in0.0 mm
08:51 AM 62.6°F17.0°C 49.3°F9.6°C 62% 1.6 mph NNE2.6 kmh NNE 2.7 mph4.3 kmh 30.08 in1018.6 mb 0.00 in0.0 mm 0.00 in0.0 mm 0.00 in0.0 mm
08:46 AM 61.9°F16.6°C 48.2°F9.0°C 61% 1.0 mph E1.6 kmh E 2.7 mph4.3 kmh 30.07 in1018.3 mb 0.00 in0.0 mm 0.00 in0.0 mm 0.00 in0.0 mm
08:41 AM 60.3°F15.7°C 46.2°F7.9°C 60% 2.0 mph SE3.2 kmh SE 3.8 mph6.1 kmh 30.07 in1018.3 mb 0.00 in0.0 mm 0.00 in0.0 mm 0.00 in0.0 mm
08:36 AM 59.9°F15.5°C 45.9°F7.7°C 60% 2.3 mph SE3.7 kmh SE 3.8 mph6.1 kmh 30.07 in1018.3 mb 0.00 in0.0 mm 0.00 in0.0 mm 0.00 in0.0 mm
08:31 AM 60.1°F15.6°C 46.9°F8.3°C 62% 1.7 mph ESE2.7 kmh ESE 3.8 mph6.1 kmh 30.07 in1018.3 mb 0.00 in0.0 mm 0.00 in0.0 mm 0.00 in0.0 mm
08:26 AM 59.5°F15.3°C 47.3°F8.5°C 64% 1.2 mph NW1.9 kmh NW 2.7 mph4.3 kmh 30.07 in1018.3 mb 0.00 in0.0 mm 0.00 in0.0 mm 0.00 in0.0 mm
08:21 AM 58.6°F14.8°C 46.8°F8.2°C 65% 1.1 mph NW1.8 kmh NW 2.7 mph4.3 kmh 30.07 in1018.3 mb 0.00 in0.0 mm 0.00 in0.0 mm 0.00 in0.0 mm
08:16 AM 56.8°F13.8°C 45.9°F7.7°C 67% 1.4 mph NW2.3 kmh NW 2.7 mph4.3 kmh 30.07 in1018.3 mb 0.00 in0.0 mm 0.00 in0.0 mm 0.00 in0.0 mm
08:11 AM 55.6°F13.1°C 44.2°F6.8°C 66% 1.7 mph NW2.7 kmh NW 2.7 mph4.3 kmh 30.07 in1018.3 mb 0.00 in0.0 mm 0.00 in0.0 mm 0.00 in0.0 mm
08:06 AM 54.0°F12.2°C 43.5°F6.4°C 68% 1.6 mph NW2.6 kmh NW 2.7 mph4.3 kmh 30.06 in1017.9 mb 0.00 in0.0 mm 0.00 in0.0 mm 0.00 in0.0 mm
08:01 AM 53.6°F12.0°C 45.1°F7.3°C 73% 1.1 mph WNW1.8 kmh WNW 2.7 mph4.3 kmh 30.06 in1017.9 mb 0.00 in0.0 mm 0.00 in0.0 mm 0.00 in0.0 mm
07:56 AM 53.1°F11.7°C 44.6°F7.0°C 73% 0.8 mph W1.3 kmh W 1.1 mph1.8 kmh 30.06 in1017.9 mb 0.00 in0.0 mm 0.00 in0.0 mm 0.00 in0.0 mm
07:51 AM 52.5°F11.4°C 43.3°F6.3°C 71% 0.5 mph SW0.8 kmh SW 1.1 mph1.8 kmh 30.06 in1017.9 mb 0.00 in0.0 mm 0.00 in0.0 mm 0.00 in0.0 mm
07:46 AM 51.3°F10.7°C 43.9°F6.6°C 76% 1.0 mph SSW1.6 kmh SSW 1.1 mph1.8 kmh 30.06 in1017.9 mb 0.00 in0.0 mm 0.00 in0.0 mm 0.00 in0.0 mm
07:41 AM 48.6°F9.2°C 42.3°F5.7°C 79% 1.5 mph S2.4 kmh S 2.7 mph4.3 kmh 30.06 in1017.9 mb 0.00 in0.0 mm 0.00 in0.0 mm 0.00 in0.0 mm
07:36 AM 47.5°F8.6°C 40.8°F4.9°C 78% 1.8 mph SE2.9 kmh SE 2.7 mph4.3 kmh 30.06 in1017.9 mb 0.00 in0.0 mm 0.00 in0.0 mm 0.00 in0.0 mm
07:31 AM 47.1°F8.4°C 40.5°F4.7°C 78% 2.1 mph SE3.4 kmh SE 2.7 mph4.3 kmh 30.05 in1017.6 mb 0.00 in0.0 mm 0.00 in0.0 mm 0.00 in0.0 mm
07:26 AM 46.8°F8.2°C 40.1°F4.5°C 78% 2.2 mph SE3.5 kmh SE 2.7 mph4.3 kmh 30.05 in1017.6 mb 0.00 in0.0 mm 0.00 in0.0 mm 0.00 in0.0 mm
07:21 AM 47.3°F8.5°C 40.1°F4.5°C 76% 2.0 mph SE3.2 kmh SE 2.7 mph4.3 kmh 30.05 in1017.6 mb 0.00 in0.0 mm 0.00 in0.0 mm 0.00 in0.0 mm
07:16 AM 49.6°F9.8°C 40.8°F4.9°C 72% 1.3 mph SW2.1 kmh SW 2.7 mph4.3 kmh 30.04 in1017.3 mb 0.00 in0.0 mm 0.00 in0.0 mm 0.00 in0.0 mm
07:11 AM 49.8°F9.9°C 40.6°F4.8°C 71% 1.0 mph SW1.6 kmh SW 2.7 mph4.3 kmh 30.04 in1017.3 mb 0.00 in0.0 mm 0.00 in0.0 mm 0.00 in0.0 mm
07:06 AM 49.5°F9.7°C 40.3°F4.6°C 71% 0.7 mph SSW1.1 kmh SSW 2.7 mph4.3 kmh 30.04 in1017.3 mb 0.00 in0.0 mm 0.00 in0.0 mm 0.00 in0.0 mm
07:01 AM 48.7°F9.3°C 40.1°F4.5°C 72% 0.6 mph S1.0 kmh S 1.1 mph1.8 kmh 30.04 in1017.3 mb 0.00 in0.0 mm 0.00 in0.0 mm 0.00 in0.0 mm
06:56 AM 47.3°F8.5°C 40.1°F4.5°C 76% 1.0 mph S1.6 kmh S 1.1 mph1.8 kmh 30.04 in1017.3 mb 0.00 in0.0 mm 0.00 in0.0 mm 0.00 in0.0 mm
06:51 AM 46.2°F7.9°C 39.9°F4.4°C 79% 0.6 mph SW1.0 kmh SW 1.1 mph1.8 kmh 30.04 in1017.3 mb 0.00 in0.0 mm 0.00 in0.0 mm 0.00 in0.0 mm
06:46 AM 46.2°F7.9°C 39.9°F4.4°C 79% 0.5 mph WSW0.8 kmh WSW 1.1 mph1.8 kmh 30.04 in1017.3 mb 0.00 in0.0 mm 0.00 in0.0 mm 0.00 in0.0 mm
06:41 AM 46.8°F8.2°C 40.1°F4.5°C 78% 1.6 mph SW2.6 kmh SW 2.7 mph4.3 kmh 30.04 in1017.3 mb 0.00 in0.0 mm 0.00 in0.0 mm 0.00 in0.0 mm
06:36 AM 45.5°F7.5°C 40.3°F4.6°C 82% 1.4 mph S2.3 kmh S 2.7 mph4.3 kmh 30.03 in1016.9 mb 0.00 in0.0 mm 0.00 in0.0 mm 0.00 in0.0 mm
06:31 AM 44.8°F7.1°C 39.6°F4.2°C 82% 0.3 mph SE0.5 kmh SE 1.1 mph1.8 kmh 30.03 in1016.9 mb 0.00 in0.0 mm 0.00 in0.0 mm 0.00 in0.0 mm
06:26 AM 45.0°F7.2°C 39.7°F4.3°C 82% Calm Calm -- 30.03 in1016.9 mb 0.00 in0.0 mm 0.00 in0.0 mm 0.00 in0.0 mm
06:21 AM 44.4°F6.9°C 38.5°F3.6°C 80% 0.4 mph SE0.6 kmh SE 1.1 mph1.8 kmh 30.02 in1016.6 mb 0.00 in0.0 mm 0.00 in0.0 mm 0.00 in0.0 mm
06:16 AM 45.0°F7.2°C 38.1°F3.4°C 77% 2.1 mph SE3.4 kmh SE 3.8 mph6.1 kmh 30.02 in1016.6 mb 0.00 in0.0 mm 0.00 in0.0 mm 0.00 in0.0 mm
06:11 AM 46.4°F8.0°C 38.8°F3.8°C 75% 2.3 mph S3.7 kmh S 3.8 mph6.1 kmh 30.01 in1016.3 mb 0.00 in0.0 mm 0.00 in0.0 mm 0.00 in0.0 mm
06:06 AM 49.5°F9.7°C 39.9°F4.4°C 70% 1.2 mph WSW1.9 kmh WSW 2.7 mph4.3 kmh 30.01 in1016.3 mb 0.00 in0.0 mm 0.00 in0.0 mm 0.00 in0.0 mm
06:01 AM 52.0°F11.1°C 40.5°F4.7°C 65% 2.1 mph W3.4 kmh W 3.8 mph6.1 kmh 30.01 in1016.3 mb 0.00 in0.0 mm 0.00 in0.0 mm 0.00 in0.0 mm
05:56 AM 51.3°F10.7°C 40.1°F4.5°C 66% 2.9 mph WNW4.7 kmh WNW 3.8 mph6.1 kmh 30.01 in1016.3 mb 0.00 in0.0 mm 0.00 in0.0 mm 0.00 in0.0 mm
05:51 AM 48.9°F9.4°C 40.3°F4.6°C 72% 2.3 mph NW3.7 kmh NW 2.7 mph4.3 kmh 30.01 in1016.3 mb 0.00 in0.0 mm 0.00 in0.0 mm 0.00 in0.0 mm
05:46 AM 47.7°F8.7°C 39.7°F4.3°C 74% 1.5 mph NW2.4 kmh NW 2.7 mph4.3 kmh 30.01 in1016.3 mb 0.00 in0.0 mm 0.00 in0.0 mm 0.00 in0.0 mm
05:41 AM 48.2°F9.0°C 40.3°F4.6°C 74% 0.7 mph NW1.1 kmh NW 1.1 mph1.8 kmh 30.01 in1016.3 mb 0.00 in0.0 mm 0.00 in0.0 mm 0.00 in0.0 mm
05:36 AM 49.5°F9.7°C 40.3°F4.6°C 71% 0.6 mph W1.0 kmh W 1.1 mph1.8 kmh 30.01 in1016.3 mb 0.00 in0.0 mm 0.00 in0.0 mm 0.00 in0.0 mm
05:31 AM 49.8°F9.9°C 40.3°F4.6°C 70% 0.8 mph WSW1.3 kmh WSW 1.1 mph1.8 kmh 30.01 in1016.3 mb 0.00 in0.0 mm 0.00 in0.0 mm 0.00 in0.0 mm
05:26 AM 49.8°F9.9°C 40.6°F4.8°C 71% 0.5 mph S0.8 kmh S 1.1 mph1.8 kmh 30.01 in1016.3 mb 0.00 in0.0 mm 0.00 in0.0 mm 0.00 in0.0 mm
05:21 AM 49.8°F9.9°C 40.6°F4.8°C 71% 0.6 mph SSE1.0 kmh SSE 1.1 mph1.8 kmh 30.01 in1016.3 mb 0.00 in0.0 mm 0.00 in0.0 mm 0.00 in0.0 mm
05:16 AM 49.5°F9.7°C 41.0°F5.0°C 73% 1.1 mph SSE1.8 kmh SSE 1.1 mph1.8 kmh 30.01 in1016.3 mb 0.00 in0.0 mm 0.00 in0.0 mm 0.00 in0.0 mm
05:11 AM 48.9°F9.4°C 40.6°F4.8°C 73% 1.4 mph S2.3 kmh S 2.7 mph4.3 kmh 30.01 in1016.3 mb 0.00 in0.0 mm 0.00 in0.0 mm 0.00 in0.0 mm
05:06 AM 49.8°F9.9°C 40.6°F4.8°C 71% 1.2 mph SW1.9 kmh SW 2.7 mph4.3 kmh 30.01 in1016.3 mb 0.00 in0.0 mm 0.00 in0.0 mm 0.00 in0.0 mm
04:56 AM 51.8°F11.0°C 41.5°F5.3°C 68% 1.6 mph WNW2.6 kmh WNW 2.7 mph4.3 kmh 30.01 in1016.3 mb 0.00 in0.0 mm 0.00 in0.0 mm 0.00 in0.0 mm
04:51 AM 51.8°F11.0°C 41.5°F5.3°C 68% 0.6 mph WNW1.0 kmh WNW 1.1 mph1.8 kmh 30.01 in1016.3 mb 0.00 in0.0 mm 0.00 in0.0 mm 0.00 in0.0 mm
04:46 AM 51.8°F11.0°C 41.9°F5.5°C 69% 1.1 mph W1.8 kmh W 1.1 mph1.8 kmh 30.01 in1016.3 mb 0.00 in0.0 mm 0.00 in0.0 mm 0.00 in0.0 mm
04:41 AM 52.0°F11.1°C 41.7°F5.4°C 68% 1.3 mph W2.1 kmh W 2.7 mph4.3 kmh 30.01 in1016.3 mb 0.00 in0.0 mm 0.00 in0.0 mm 0.00 in0.0 mm
04:36 AM 52.2°F11.2°C 41.9°F5.5°C 68% 1.3 mph W2.1 kmh W 2.7 mph4.3 kmh 30.01 in1016.3 mb 0.00 in0.0 mm 0.00 in0.0 mm 0.00 in0.0 mm
04:31 AM 52.0°F11.1°C 41.7°F5.4°C 68% 2.7 mph W4.3 kmh W 5.2 mph8.4 kmh 30.01 in1016.3 mb 0.00 in0.0 mm 0.00 in0.0 mm 0.00 in0.0 mm
04:26 AM 51.4°F10.8°C 41.9°F5.5°C 70% 3.1 mph W5.0 kmh W 5.2 mph8.4 kmh 30.01 in1016.3 mb 0.00 in0.0 mm 0.00 in0.0 mm 0.00 in0.0 mm
04:21 AM 51.4°F10.8°C 41.9°F5.5°C 70% 2.5 mph W4.0 kmh W 3.8 mph6.1 kmh 30.01 in1016.3 mb 0.00 in0.0 mm 0.00 in0.0 mm 0.00 in0.0 mm
04:16 AM 51.4°F10.8°C 42.3°F5.7°C 71% 2.1 mph W3.4 kmh W 2.7 mph4.3 kmh 30.01 in1016.3 mb 0.00 in0.0 mm 0.00 in0.0 mm 0.00 in0.0 mm
04:11 AM 51.4°F10.8°C 42.6°F5.9°C 72% 2.0 mph W3.2 kmh W 2.7 mph4.3 kmh 30.01 in1016.3 mb 0.00 in0.0 mm 0.00 in0.0 mm 0.00 in0.0 mm
04:06 AM 51.3°F10.7°C 43.2°F6.2°C 74% 1.7 mph W2.7 kmh W 2.7 mph4.3 kmh 30.01 in1016.3 mb 0.00 in0.0 mm 0.00 in0.0 mm 0.00 in0.0 mm
04:01 AM 50.9°F10.5°C 43.2°F6.2°C 75% 1.8 mph W2.9 kmh W 2.7 mph4.3 kmh 30.01 in1016.3 mb 0.00 in0.0 mm 0.00 in0.0 mm 0.00 in0.0 mm
03:56 AM 50.7°F10.4°C 43.3°F6.3°C 76% 2.4 mph W3.9 kmh W 2.7 mph4.3 kmh 30.01 in1016.3 mb 0.00 in0.0 mm 0.00 in0.0 mm 0.00 in0.0 mm
03:51 AM 50.0°F10.0°C 44.1°F6.7°C 80% 1.9 mph W3.1 kmh W 2.7 mph4.3 kmh 30.01 in1016.3 mb 0.00 in0.0 mm 0.00 in0.0 mm 0.00 in0.0 mm
03:46 AM 49.5°F9.7°C 43.5°F6.4°C 80% 1.6 mph WNW2.6 kmh WNW 2.7 mph4.3 kmh 30.01 in1016.3 mb 0.00 in0.0 mm 0.00 in0.0 mm 0.00 in0.0 mm
03:41 AM 49.6°F9.8°C 43.7°F6.5°C 80% 1.4 mph NW2.3 kmh NW 2.7 mph4.3 kmh 30.01 in1016.3 mb 0.00 in0.0 mm 0.00 in0.0 mm 0.00 in0.0 mm
03:36 AM 50.2°F10.1°C 42.8°F6.0°C 76% 0.9 mph NW1.4 kmh NW 1.1 mph1.8 kmh 30.01 in1016.3 mb 0.00 in0.0 mm 0.00 in0.0 mm 0.00 in0.0 mm
03:31 AM 51.8°F11.0°C 43.0°F6.1°C 72% 0.5 mph WNW0.8 kmh WNW 1.1 mph1.8 kmh 30.01 in1016.3 mb 0.00 in0.0 mm 0.00 in0.0 mm 0.00 in0.0 mm
03:26 AM 53.1°F11.7°C 42.6°F5.9°C 68% 0.8 mph W1.3 kmh W 2.7 mph4.3 kmh 30.01 in1016.3 mb 0.00 in0.0 mm 0.00 in0.0 mm 0.00 in0.0 mm
03:16 AM 53.8°F12.1°C 43.0°F6.1°C 67% 0.7 mph W1.1 kmh W 1.1 mph1.8 kmh 30.01 in1016.3 mb 0.00 in0.0 mm 0.00 in0.0 mm 0.00 in0.0 mm
03:11 AM 52.7°F11.5°C 42.8°F6.0°C 69% 0.3 mph W0.5 kmh W 1.1 mph1.8 kmh 30.01 in1016.3 mb 0.00 in0.0 mm 0.00 in0.0 mm 0.00 in0.0 mm
03:06 AM 53.6°F12.0°C 43.9°F6.6°C 70% 0.7 mph W1.1 kmh W 1.1 mph1.8 kmh 30.01 in1016.3 mb 0.00 in0.0 mm 0.00 in0.0 mm 0.00 in0.0 mm
03:01 AM 53.8°F12.1°C 44.1°F6.7°C 70% 1.3 mph W2.1 kmh W 2.7 mph4.3 kmh 30.01 in1016.3 mb 0.00 in0.0 mm 0.00 in0.0 mm 0.00 in0.0 mm
02:56 AM 52.5°F11.4°C 44.4°F6.9°C 74% 1.3 mph WSW2.1 kmh WSW 2.7 mph4.3 kmh 30.01 in1016.3 mb 0.00 in0.0 mm 0.00 in0.0 mm 0.00 in0.0 mm
02:51 AM 51.4°F10.8°C 45.1°F7.3°C 79% 1.3 mph SSW2.1 kmh SSW 2.7 mph4.3 kmh 30.01 in1016.3 mb 0.00 in0.0 mm 0.00 in0.0 mm 0.00 in0.0 mm
02:46 AM 50.9°F10.5°C 46.2°F7.9°C 84% 1.4 mph S2.3 kmh S 2.7 mph4.3 kmh 30.01 in1016.3 mb 0.00 in0.0 mm 0.00 in0.0 mm 0.00 in0.0 mm
02:41 AM 50.9°F10.5°C 46.2°F7.9°C 84% 2.1 mph S3.4 kmh S 2.7 mph4.3 kmh 30.01 in1016.3 mb 0.00 in0.0 mm 0.00 in0.0 mm 0.00 in0.0 mm
02:36 AM 50.7°F10.4°C 45.0°F7.2°C 81% 2.0 mph S3.2 kmh S 2.7 mph4.3 kmh 30.02 in1016.6 mb 0.00 in0.0 mm 0.00 in0.0 mm 0.00 in0.0 mm
02:31 AM 50.9°F10.5°C 43.9°F6.6°C 77% 1.3 mph S2.1 kmh S 2.7 mph4.3 kmh 30.02 in1016.6 mb 0.00 in0.0 mm 0.00 in0.0 mm 0.00 in0.0 mm
02:26 AM 51.3°F10.7°C 43.9°F6.6°C 76% 1.5 mph SW2.4 kmh SW 2.7 mph4.3 kmh 30.02 in1016.6 mb 0.00 in0.0 mm 0.00 in0.0 mm 0.00 in0.0 mm
02:21 AM 50.9°F10.5°C 44.6°F7.0°C 79% 1.5 mph S2.4 kmh S 2.7 mph4.3 kmh 30.02 in1016.6 mb 0.00 in0.0 mm 0.00 in0.0 mm 0.00 in0.0 mm
02:16 AM 51.4°F10.8°C 46.0°F7.8°C 82% 0.7 mph S1.1 kmh S 2.7 mph4.3 kmh 30.02 in1016.6 mb 0.00 in0.0 mm 0.00 in0.0 mm 0.00 in0.0 mm
02:11 AM 52.0°F11.1°C 46.6°F8.1°C 82% 0.4 mph S0.6 kmh S 1.1 mph1.8 kmh 30.02 in1016.6 mb 0.00 in0.0 mm 0.00 in0.0 mm 0.00 in0.0 mm
02:06 AM 52.5°F11.4°C 47.1°F8.4°C 82% 1.1 mph SSE1.8 kmh SSE 2.7 mph4.3 kmh 30.02 in1016.6 mb 0.00 in0.0 mm 0.00 in0.0 mm 0.00 in0.0 mm
02:01 AM 52.5°F11.4°C 47.5°F8.6°C 83% 1.7 mph SSE2.7 kmh SSE 2.7 mph4.3 kmh 30.02 in1016.6 mb 0.00 in0.0 mm 0.00 in0.0 mm 0.00 in0.0 mm
01:56 AM 52.5°F11.4°C 47.8°F8.8°C 84% 2.2 mph S3.5 kmh S 2.7 mph4.3 kmh 30.03 in1016.9 mb 0.00 in0.0 mm 0.00 in0.0 mm 0.00 in0.0 mm
01:51 AM 52.3°F11.3°C 47.7°F8.7°C 84% 2.9 mph SSE4.7 kmh SSE 3.8 mph6.1 kmh 30.03 in1016.9 mb 0.00 in0.0 mm 0.00 in0.0 mm 0.00 in0.0 mm
01:46 AM 51.8°F11.0°C 46.8°F8.2°C 83% 2.8 mph SSE4.5 kmh SSE 3.8 mph6.1 kmh 30.03 in1016.9 mb 0.00 in0.0 mm 0.00 in0.0 mm 0.00 in0.0 mm
01:41 AM 52.0°F11.1°C 45.9°F7.7°C 80% 1.8 mph SE2.9 kmh SE 2.7 mph4.3 kmh 30.03 in1016.9 mb 0.00 in0.0 mm 0.00 in0.0 mm 0.00 in0.0 mm
01:36 AM 52.7°F11.5°C 46.0°F7.8°C 78% 1.8 mph SE2.9 kmh SE 2.7 mph4.3 kmh 30.03 in1016.9 mb 0.00 in0.0 mm 0.00 in0.0 mm 0.00 in0.0 mm
01:31 AM 54.0°F12.2°C 45.5°F7.5°C 73% 1.5 mph E2.4 kmh E 2.7 mph4.3 kmh 30.03 in1016.9 mb 0.00 in0.0 mm 0.00 in0.0 mm 0.00 in0.0 mm
01:26 AM 56.3°F13.5°C 45.0°F7.2°C 66% 1.2 mph E1.9 kmh E 2.7 mph4.3 kmh 30.03 in1016.9 mb 0.00 in0.0 mm 0.00 in0.0 mm 0.00 in0.0 mm
01:21 AM 57.7°F14.3°C 44.8°F7.1°C 62% 2.0 mph SSW3.2 kmh SSW 2.7 mph4.3 kmh 30.03 in1016.9 mb 0.00 in0.0 mm 0.00 in0.0 mm 0.00 in0.0 mm
01:16 AM 57.7°F14.3°C 43.9°F6.6°C 60% 2.9 mph SW4.7 kmh SW 5.2 mph8.4 kmh 30.03 in1016.9 mb 0.00 in0.0 mm 0.00 in0.0 mm 0.00 in0.0 mm
01:11 AM 57.4°F14.1°C 44.4°F6.9°C 62% 2.8 mph SW4.5 kmh SW 5.2 mph8.4 kmh 30.03 in1016.9 mb 0.00 in0.0 mm 0.00 in0.0 mm 0.00 in0.0 mm
01:06 AM 55.0°F12.8°C 44.6°F7.0°C 68% 2.6 mph SSW4.2 kmh SSW 3.8 mph6.1 kmh 30.03 in1016.9 mb 0.00 in0.0 mm 0.00 in0.0 mm 0.00 in0.0 mm
01:01 AM 52.5°F11.4°C 44.8°F7.1°C 75% 2.7 mph SSE4.3 kmh SSE 3.8 mph6.1 kmh 30.03 in1016.9 mb 0.00 in0.0 mm 0.00 in0.0 mm 0.00 in0.0 mm
12:56 AM 52.5°F11.4°C 45.9°F7.7°C 78% 2.4 mph SE3.9 kmh SE 2.7 mph4.3 kmh 30.03 in1016.9 mb 0.00 in0.0 mm 0.00 in0.0 mm 0.00 in0.0 mm
12:51 AM 53.8°F12.1°C 45.7°F7.6°C 74% 1.9 mph SSE3.1 kmh SSE 2.7 mph4.3 kmh 30.03 in1016.9 mb 0.00 in0.0 mm 0.00 in0.0 mm 0.00 in0.0 mm
12:46 AM 55.8°F13.2°C 45.0°F7.2°C 67% 1.2 mph S1.9 kmh S 2.7 mph4.3 kmh 30.03 in1016.9 mb 0.00 in0.0 mm 0.00 in0.0 mm 0.00 in0.0 mm
12:41 AM 56.3°F13.5°C 45.3°F7.4°C 67% 1.1 mph S1.8 kmh S 2.7 mph4.3 kmh 30.03 in1016.9 mb 0.00 in0.0 mm 0.00 in0.0 mm 0.00 in0.0 mm
12:36 AM 56.3°F13.5°C 45.0°F7.2°C 66% 1.6 mph S2.6 kmh S 2.7 mph4.3 kmh 30.03 in1016.9 mb 0.00 in0.0 mm 0.00 in0.0 mm 0.00 in0.0 mm
12:31 AM 57.2°F14.0°C 45.9°F7.7°C 66% 1.3 mph WSW2.1 kmh WSW 2.7 mph4.3 kmh 30.03 in1016.9 mb 0.00 in0.0 mm 0.00 in0.0 mm 0.00 in0.0 mm
12:26 AM 58.3°F14.6°C 46.9°F8.3°C 66% 0.2 mph W0.3 kmh W 1.1 mph1.8 kmh 30.02 in1016.6 mb 0.00 in0.0 mm 0.00 in0.0 mm 0.00 in0.0 mm
12:21 AM 58.8°F14.9°C 46.9°F8.3°C 65% 0.2 mph WNW0.3 kmh WNW 1.1 mph1.8 kmh 30.02 in1016.6 mb 0.00 in0.0 mm 0.00 in0.0 mm 0.00 in0.0 mm
12:16 AM 60.1°F15.6°C 47.8°F8.8°C 64% 0.4 mph WNW0.6 kmh WNW 1.1 mph1.8 kmh 30.02 in1016.6 mb 0.00 in0.0 mm 0.00 in0.0 mm 0.00 in0.0 mm
12:11 AM 61.0°F16.1°C 47.3°F8.5°C 61% 1.1 mph WNW1.8 kmh WNW 2.7 mph4.3 kmh 30.02 in1016.6 mb 0.00 in0.0 mm 0.00 in0.0 mm 0.00 in0.0 mm
12:06 AM 61.9°F16.6°C 47.7°F8.7°C 60% 2.3 mph W3.7 kmh W 5.2 mph8.4 kmh 30.02 in1016.6 mb 0.00 in0.0 mm 0.00 in0.0 mm 0.00 in0.0 mm
12:01 AM 62.2°F16.8°C 48.6°F9.2°C 61% 2.8 mph W4.5 kmh W 5.2 mph8.4 kmh 30.02 in1016.6 mb 0.00 in0.0 mm 0.00 in0.0 mm 0.00 in0.0 mm